Time;durP1;ratioP1;P1;durP2;ratioP2;P2;SDS_P1;SDS_P2;PMS_P1;PMS_P2;Temp;Humidity;BMP_temperature;BMP_pressure;BME280_temperature;BME280_humidity;BME280_pressure;Samples;Min_cycle;Max_cycle;Signal;HPM_P1;HPM_P2
2023/08/26 00:02:26;;;;;;;8.63;5.18;;;19.20;99.90;;;19.01;100.00;96780.59;5069824;28;20036;-38
2023/08/26 00:04:52;;;;;;;10.00;5.65;;;19.10;99.90;;;19.04;100.00;96774.13;5074751;28;20028;-38
2023/08/26 00:07:17;;;;;;;10.88;5.90;;;19.10;99.90;;;19.05;100.00;96802.56;5072782;28;20772;-40
2023/08/26 00:09:43;;;;;;;10.45;5.68;;;19.10;99.90;;;18.99;100.00;96785.22;5073590;28;20100;-40
2023/08/26 00:12:09;;;;;;;7.38;5.05;;;19.10;99.90;;;18.92;100.00;96789.34;5072039;28;20028;-39
2023/08/26 00:14:35;;;;;;;6.65;5.07;;;19.10;99.90;;;18.92;100.00;96802.72;5069666;28;20024;-39
2023/08/26 00:17:00;;;;;;;7.55;5.43;;;19.00;99.90;;;18.92;100.00;96794.69;5062285;28;20036;-39
2023/08/26 00:19:26;;;;;;;16.70;5.78;;;19.00;99.90;;;18.92;100.00;96785.84;5068854;28;20242;-39
2023/08/26 00:21:52;;;;;;;8.20;5.55;;;19.00;99.90;;;18.88;100.00;96777.22;5065658;28;20113;-39
2023/08/26 00:24:19;;;;;;;7.35;5.03;;;19.00;99.90;;;18.87;100.00;96772.84;5073298;28;20028;-38
2023/08/26 00:26:44;;;;;;;7.03;5.30;;;19.00;99.90;;;18.85;100.00;96770.28;5077575;28;20032;-39
2023/08/26 00:29:11;;;;;;;10.85;5.10;;;19.00;99.90;;;18.89;100.00;96787.75;5068464;28;20040;-40
2023/08/26 00:31:37;;;;;;;5.68;4.53;;;19.00;99.90;;;18.84;100.00;96786.44;5071058;28;20031;-39
2023/08/26 00:34:03;;;;;;;9.10;5.63;;;18.90;99.90;;;18.88;100.00;96785.22;5075141;28;20035;-39
2023/08/26 00:36:30;;;;;;;7.22;4.80;;;19.00;99.90;;;18.89;100.00;96781.56;5066945;28;20043;-39
2023/08/26 00:38:57;;;;;;;12.73;5.40;;;19.00;99.90;;;18.84;100.00;96763.25;5072467;28;20072;-39
2023/08/26 00:41:23;;;;;;;11.15;5.05;;;18.90;99.90;;;18.84;100.00;96773.06;5072427;28;20032;-40
2023/08/26 00:43:48;;;;;;;10.57;5.22;;;18.90;99.90;;;18.78;100.00;96769.03;5070846;28;20027;-39
2023/08/26 00:46:14;;;;;;;7.40;4.55;;;18.90;99.90;;;18.79;100.00;96775.22;5069587;28;20336;-40
2023/08/26 00:48:41;;;;;;;10.57;5.53;;;18.90;99.90;;;18.70;100.00;96752.81;5075201;28;20063;-39
2023/08/26 00:51:07;;;;;;;9.35;5.40;;;18.90;99.90;;;18.72;100.00;96758.88;5068289;28;21080;-38
2023/08/26 00:53:33;;;;;;;7.20;4.70;;;18.90;99.90;;;18.74;100.00;96767.59;5073183;28;20066;-38
2023/08/26 00:56:00;;;;;;;5.93;5.00;;;18.80;99.90;;;18.67;100.00;96777.91;5076929;28;20497;-38
2023/08/26 00:58:28;;;;;;;10.60;5.72;;;18.80;99.90;;;18.63;100.00;96788.97;5078524;28;20020;-38
2023/08/26 01:00:55;;;;;;;5.35;4.20;;;18.80;99.90;;;18.74;100.00;96788.13;5077969;28;20039;-38
2023/08/26 01:03:20;;;;;;;7.72;5.00;;;18.80;99.90;;;18.65;100.00;96790.53;5080584;28;20024;-38
2023/08/26 01:05:46;;;;;;;8.32;5.00;;;18.80;99.90;;;18.68;100.00;96802.78;5078277;28;20391;-38
2023/08/26 01:08:13;;;;;;;9.55;4.57;;;18.80;99.90;;;18.65;100.00;96803.91;5078408;28;20036;-38
2023/08/26 01:11:23;;;;;;;8.75;5.07;;;18.80;99.90;;;18.62;100.00;96811.31;5074674;28;20039;-37
2023/08/26 01:14:19;;;;;;;6.22;4.30;;;18.80;99.90;;;18.65;100.00;96817.25;5074634;28;20469;-37
2023/08/26 01:16:45;;;;;;;6.95;4.38;;;18.70;99.90;;;18.63;100.00;96802.34;5079920;28;20054;-38
2023/08/26 01:19:38;;;;;;;6.90;4.03;;;18.70;99.90;;;18.63;100.00;96818.34;5073177;28;20521;-37
2023/08/26 01:22:08;;;;;;;6.97;3.90;;;18.70;99.90;;;18.59;100.00;96835.56;5080188;28;20502;-37
2023/08/26 01:24:36;;;;;;;7.80;4.30;;;18.70;99.90;;;18.61;100.00;96868.34;5078339;28;20051;-37
2023/08/26 01:27:02;;;;;;;8.98;4.72;;;18.70;99.90;;;18.62;100.00;96865.56;5077629;28;20238;-37
2023/08/26 01:29:28;;;;;;;12.77;4.85;;;18.70;99.90;;;18.51;100.00;96842.34;5080233;28;20456;-37
2023/08/26 01:32:34;;;;;;;7.38;3.75;;;18.70;99.90;;;18.53;100.00;96873.44;5079412;28;20119;-37
2023/08/26 01:35:03;;;;;;;8.30;4.65;;;18.70;99.90;;;18.43;100.00;96862.59;5078430;28;20500;-37
2023/08/26 01:37:29;;;;;;;5.70;4.15;;;18.60;99.90;;;18.42;100.00;96858.25;5074051;28;20044;-38
2023/08/26 01:39:58;;;;;;;5.22;3.97;;;18.60;99.90;;;18.48;100.00;96858.63;5077652;28;20137;-37
2023/08/26 01:42:27;;;;;;;5.55;4.18;;;18.60;99.90;;;18.48;100.00;96852.44;5078398;28;20034;-37
2023/08/26 01:44:53;;;;;;;6.63;3.92;;;18.60;99.90;;;18.46;100.00;96849.03;5076151;28;20115;-37
2023/08/26 01:47:19;;;;;;;6.32;3.80;;;18.60;99.90;;;18.42;100.00;96839.56;5061272;28;20169;-37
2023/08/26 01:49:45;;;;;;;5.50;3.53;;;18.60;99.90;;;18.38;100.00;96814.09;5082681;28;20107;-38
2023/08/26 01:52:11;;;;;;;6.78;3.42;;;18.50;99.90;;;18.41;100.00;96822.72;5076124;28;20036;-37
2023/08/26 01:54:37;;;;;;;6.47;3.40;;;18.50;99.90;;;18.40;100.00;96818.31;5079641;28;20024;-38
2023/08/26 01:57:03;;;;;;;6.00;3.63;;;18.50;99.90;;;18.36;100.00;96818.66;5078227;28;20055;-37
2023/08/26 01:59:28;;;;;;;5.53;3.20;;;18.50;99.90;;;18.38;100.00;96833.63;5080090;28;20137;-38
2023/08/26 02:01:54;;;;;;;4.00;3.00;;;18.50;99.90;;;18.38;100.00;96848.78;5075109;28;20063;-37
2023/08/26 02:04:20;;;;;;;6.53;2.97;;;18.50;99.90;;;18.35;100.00;96851.69;5079209;28;20051;-38
2023/08/26 02:06:46;;;;;;;5.43;3.13;;;18.40;99.90;;;18.29;100.00;96848.53;5074424;28;20055;-37
2023/08/26 02:09:12;;;;;;;4.25;3.20;;;18.40;99.90;;;18.25;100.00;96851.53;5078216;28;20051;-38
2023/08/26 02:11:37;;;;;;;3.42;2.72;;;18.40;99.90;;;18.23;100.00;96846.34;5083131;28;20388;-38
2023/08/26 02:14:03;;;;;;;6.50;2.90;;;18.40;99.90;;;18.23;100.00;96848.13;5066375;28;20047;-38
2023/08/26 02:16:29;;;;;;;3.33;2.47;;;18.30;99.90;;;18.18;100.00;96834.28;5072120;28;20050;-38
2023/08/26 02:18:54;;;;;;;4.40;2.80;;;18.30;99.90;;;18.15;100.00;96837.22;5076847;28;20070;-38
2023/08/26 02:21:20;;;;;;;6.53;2.90;;;18.30;99.90;;;18.14;100.00;96847.00;5075931;28;21372;-38
2023/08/26 02:23:46;;;;;;;3.58;2.60;;;18.30;99.90;;;18.13;100.00;96848.00;5071723;28;20032;-38
2023/08/26 02:26:12;;;;;;;4.47;2.90;;;18.30;99.90;;;18.10;100.00;96849.06;5073832;28;20028;-39
2023/08/26 02:28:38;;;;;;;3.88;2.97;;;18.20;99.90;;;18.06;100.00;96842.28;5076642;28;20068;-39
2023/08/26 02:31:03;;;;;;;4.10;3.08;;;18.20;99.90;;;18.09;100.00;96846.53;5074390;28;20033;-38
2023/08/26 02:33:30;;;;;;;5.18;3.08;;;18.20;99.90;;;18.07;100.00;96856.44;5076720;28;20133;-38
2023/08/26 02:35:55;;;;;;;5.55;3.15;;;18.20;99.90;;;18.10;100.00;96850.88;5072798;28;20032;-38
2023/08/26 02:38:21;;;;;;;5.15;3.25;;;18.30;99.90;;;18.15;100.00;96851.41;5069097;28;20097;-39
2023/08/26 02:40:54;;;;;;;6.03;3.50;;;18.20;99.90;;;18.18;100.00;96860.97;5074806;28;20081;-38
2023/08/26 02:43:21;;;;;;;4.30;2.80;;;18.30;99.90;;;18.16;100.00;96855.78;5079018;28;20031;-39
2023/08/26 02:45:52;;;;;;;4.95;3.70;;;18.30;99.90;;;18.16;100.00;96846.91;5074507;28;20016;-38
2023/08/26 02:48:17;;;;;;;4.65;3.65;;;18.30;99.90;;;18.15;100.00;96855.88;5074274;28;20039;-38
2023/08/26 02:50:43;;;;;;;5.07;3.90;;;18.30;99.90;;;18.11;100.00;96853.44;5073606;28;20403;-39
2023/08/26 02:53:09;;;;;;;4.97;3.13;;;18.20;99.90;;;18.07;100.00;96849.31;5070611;28;20028;-38
2023/08/26 02:55:34;;;;;;;6.65;3.35;;;18.20;99.90;;;18.12;100.00;96844.50;5073629;28;20084;-38
2023/08/26 02:58:00;;;;;;;3.90;3.00;;;18.30;99.90;;;18.08;100.00;96845.66;5075891;28;20107;-38
2023/08/26 03:00:26;;;;;;;5.47;3.53;;;18.20;99.90;;;18.09;100.00;96858.06;5067844;28;20047;-38
2023/08/26 03:02:51;;;;;;;3.08;2.78;;;18.20;99.90;;;18.02;100.00;96862.16;5072709;28;20059;-38
2023/08/26 03:05:17;;;;;;;4.18;3.05;;;18.20;99.90;;;18.06;100.00;96863.63;5072074;28;20608;-38
2023/08/26 03:07:43;;;;;;;3.83;2.90;;;18.20;99.90;;;18.06;100.00;96862.78;5071436;28;20303;-39
2023/08/26 03:10:09;;;;;;;5.35;3.17;;;18.20;99.90;;;18.00;100.00;96853.41;5063383;28;20028;-39
2023/08/26 03:12:34;;;;;;;5.88;3.40;;;18.20;99.90;;;18.04;100.00;96876.22;5074763;28;20020;-38
2023/08/26 03:15:00;;;;;;;4.75;3.05;;;18.20;99.90;;;18.04;100.00;96878.06;5070485;28;20031;-39
2023/08/26 03:17:26;;;;;;;3.50;3.08;;;18.20;99.90;;;17.94;100.00;96864.53;5073407;28;20048;-38
2023/08/26 03:19:52;;;;;;;4.18;3.10;;;18.10;99.90;;;17.96;100.00;96873.28;5072124;28;20466;-38
2023/08/26 03:22:18;;;;;;;5.57;3.00;;;18.10;99.90;;;17.99;100.00;96881.06;5070839;28;20041;-38
2023/08/26 03:24:43;;;;;;;5.00;3.15;;;18.10;99.90;;;17.77;100.00;96856.94;5067736;28;20036;-38
2023/08/26 03:27:09;;;;;;;4.75;2.83;;;18.10;99.90;;;17.92;100.00;96886.00;5073174;28;20032;-38
2023/08/26 03:29:35;;;;;;;4.13;2.80;;;18.10;99.90;;;17.92;100.00;96885.16;5075798;28;20029;-38
2023/08/26 03:32:01;;;;;;;3.85;2.85;;;18.00;99.90;;;17.92;100.00;96875.31;5071428;28;20484;-38
2023/08/26 03:34:27;;;;;;;4.95;3.10;;;18.00;99.90;;;17.92;100.00;96883.31;5069408;28;20043;-39
2023/08/26 03:36:52;;;;;;;3.70;2.60;;;18.00;99.90;;;17.82;100.00;96862.75;5075031;28;20036;-39
2023/08/26 03:39:18;;;;;;;3.78;3.00;;;18.00;99.90;;;17.86;100.00;96875.78;5074805;28;20407;-39
2023/08/26 03:41:44;;;;;;;3.95;2.60;;;18.00;99.90;;;17.78;100.00;96869.28;5070258;28;20039;-38
2023/08/26 03:44:10;;;;;;;4.75;2.85;;;17.90;99.90;;;17.75;100.00;96857.06;5070803;28;20051;-38
2023/08/26 03:46:35;;;;;;;3.80;2.92;;;17.90;99.90;;;17.66;100.00;96861.25;5068159;28;20032;-38
2023/08/26 03:49:02;;;;;;;4.15;2.97;;;17.80;99.90;;;17.56;100.00;96852.22;5069041;28;20035;-38
2023/08/26 03:51:28;;;;;;;3.78;3.15;;;17.80;99.90;;;17.53;100.00;96860.44;5074310;28;20115;-38
2023/08/26 03:53:54;;;;;;;7.45;3.72;;;17.70;99.90;;;17.47;100.00;96859.06;5069746;28;20055;-38
2023/08/26 03:56:19;;;;;;;5.55;3.72;;;17.70;99.90;;;17.45;100.00;96865.50;5076486;28;20119;-39
2023/08/26 03:58:45;;;;;;;3.22;2.90;;;17.60;99.90;;;17.42;100.00;96871.03;5070363;28;20032;-38
2023/08/26 04:01:11;;;;;;;4.30;3.38;;;17.60;99.90;;;17.38;100.00;96877.56;5070486;28;20427;-38
2023/08/26 04:03:36;;;;;;;8.48;3.67;;;17.50;99.90;;;17.32;100.00;96885.03;5070596;28;20066;-38
2023/08/26 04:06:04;;;;;;;6.75;3.80;;;17.50;99.90;;;17.29;100.00;96895.06;5070099;28;20096;-38
2023/08/26 04:08:32;;;;;;;6.13;3.72;;;17.50;99.90;;;17.29;100.00;96897.75;5074527;28;20042;-38
2023/08/26 04:11:00;;;;;;;8.27;4.05;;;17.40;99.90;;;17.30;100.00;96896.75;5074274;28;20068;-38
2023/08/26 04:13:27;;;;;;;6.28;4.22;;;17.40;99.90;;;17.31;100.00;96901.97;5076844;28;20028;-39
2023/08/26 04:15:59;;;;;;;7.13;4.55;;;17.50;99.90;;;17.35;100.00;96905.28;5071181;28;20484;-38
2023/08/26 04:18:25;;;;;;;6.28;4.80;;;17.50;99.90;;;17.31;100.00;96909.13;5072704;28;20043;-39
2023/08/26 04:20:52;;;;;;;6.82;4.32;;;17.50;99.90;;;17.33;100.00;96902.72;5072184;28;20029;-38
2023/08/26 04:23:18;;;;;;;7.78;5.28;;;17.50;99.90;;;17.33;100.00;96905.38;5075320;28;20051;-38
2023/08/26 04:25:44;;;;;;;7.47;4.40;;;17.50;99.90;;;17.35;100.00;96910.59;5073909;28;20399;-38
2023/08/26 04:28:11;;;;;;;9.32;4.38;;;17.50;99.90;;;17.43;100.00;96907.41;5073812;28;20020;-38
2023/08/26 04:30:37;;;;;;;9.57;4.50;;;17.60;99.90;;;17.43;100.00;96904.75;5075146;28;20032;-39
2023/08/26 04:33:04;;;;;;;8.48;4.70;;;17.60;99.90;;;17.29;100.00;96903.91;5075857;28;20043;-38
2023/08/26 04:35:33;;;;;;;5.35;3.90;;;17.50;99.90;;;17.38;100.00;96928.22;5071451;28;20040;-39
2023/08/26 04:38:03;;;;;;;9.20;5.25;;;17.50;99.90;;;17.36;100.00;96929.16;5073300;28;20069;-38
2023/08/26 04:40:29;;;;;;;6.97;4.60;;;17.50;99.90;;;17.34;100.00;96930.25;5079747;28;20116;-38
2023/08/26 04:42:56;;;;;;;6.47;4.50;;;17.50;99.90;;;17.32;100.00;96934.84;5075198;28;20484;-39
2023/08/26 04:45:22;;;;;;;9.05;4.45;;;17.50;99.90;;;17.29;100.00;96927.91;5076522;28;20040;-38
2023/08/26 04:47:48;;;;;;;5.63;4.43;;;17.50;99.90;;;17.20;100.00;96927.72;5075200;28;20527;-39
2023/08/26 04:50:14;;;;;;;8.57;4.30;;;17.40;99.90;;;17.20;100.00;96939.22;5074927;28;20032;-39
2023/08/26 04:52:42;;;;;;;4.22;3.63;;;17.40;99.90;;;17.23;100.00;96951.44;5077938;28;20078;-40
2023/08/26 04:55:09;;;;;;;6.95;4.50;;;17.40;99.90;;;17.23;100.00;96944.34;5078666;28;20020;-40
2023/08/26 04:57:35;;;;;;;5.65;4.18;;;17.40;99.90;;;17.24;100.00;96961.16;5078347;28;20115;-40
2023/08/26 05:00:00;;;;;;;5.43;3.88;;;17.40;99.90;;;17.15;100.00;96952.84;5070131;28;20025;-39
2023/08/26 05:02:26;;;;;;;5.55;4.40;;;17.40;99.90;;;17.17;100.00;96955.41;5076722;28;20517;-38
2023/08/26 05:04:53;;;;;;;6.97;4.43;;;17.30;99.90;;;17.06;100.00;96950.00;5069863;28;20451;-40
2023/08/26 05:07:20;;;;;;;6.28;4.05;;;17.30;99.90;;;17.05;100.00;96957.16;5070607;28;20024;-38
2023/08/26 05:09:46;;;;;;;7.40;4.38;;;17.30;99.90;;;17.15;100.00;96966.16;5077249;28;20032;-39
2023/08/26 05:12:11;;;;;;;6.28;4.25;;;17.30;99.90;;;17.17;100.00;96966.06;5076864;28;20490;-38
2023/08/26 05:14:37;;;;;;;7.28;4.72;;;17.30;99.90;;;17.09;100.00;96952.44;5077112;28;20028;-38
2023/08/26 05:17:03;;;;;;;7.80;4.40;;;17.30;99.90;;;17.20;100.00;96968.53;5067685;28;20172;-38
2023/08/26 05:19:28;;;;;;;5.93;4.18;;;17.40;99.90;;;17.16;100.00;96959.91;5071431;28;20064;-38
2023/08/26 05:21:54;;;;;;;7.70;3.80;;;17.40;99.90;;;17.28;100.00;96967.97;5077782;28;20437;-39
2023/08/26 05:24:20;;;;;;;4.43;3.88;;;17.40;99.90;;;17.31;100.00;96973.09;5075125;28;20060;-39
2023/08/26 05:26:46;;;;;;;4.72;3.92;;;17.40;99.90;;;17.29;100.00;96959.03;5074078;28;20088;-40
2023/08/26 05:29:11;;;;;;;8.35;3.88;;;17.50;99.90;;;17.34;100.00;96965.72;5077757;28;20046;-39
2023/08/26 05:31:37;;;;;;;6.85;4.63;;;17.50;99.90;;;17.41;100.00;96971.50;5072522;28;20028;-39
2023/08/26 05:34:03;;;;;;;4.95;3.85;;;17.50;99.90;;;17.37;100.00;96956.66;5075377;28;20047;-38
2023/08/26 05:36:29;;;;;;;7.68;4.47;;;17.50;99.90;;;17.42;100.00;96964.34;5075658;28;20038;-39
2023/08/26 05:38:54;;;;;;;4.63;3.88;;;17.50;99.90;;;17.38;100.00;96961.03;5073976;28;20325;-39
2023/08/26 05:41:20;;;;;;;6.07;4.30;;;17.60;99.90;;;17.38;100.00;96962.84;5076992;28;20043;-39
2023/08/26 05:43:46;;;;;;;4.43;3.40;;;17.50;99.90;;;17.35;100.00;96963.91;5082889;28;20031;-40
2023/08/26 05:46:11;;;;;;;6.50;3.70;;;17.50;99.90;;;17.33;100.00;96961.34;5074845;28;20557;-39
2023/08/26 05:48:37;;;;;;;5.13;4.15;;;17.40;99.90;;;17.33;100.00;96966.69;5081266;28;20039;-38
2023/08/26 05:51:03;;;;;;;8.90;4.07;;;17.50;99.90;;;17.35;100.00;96959.44;5077015;28;20039;-40
2023/08/26 05:53:29;;;;;;;7.35;4.47;;;17.50;99.90;;;17.44;100.00;96967.72;5074499;28;20039;-39
2023/08/26 05:55:55;;;;;;;5.93;3.95;;;17.60;99.90;;;17.47;100.00;96959.53;5075756;28;20024;-40
2023/08/26 05:58:21;;;;;;;4.32;3.85;;;17.60;99.90;;;17.66;100.00;96957.25;5077293;28;20523;-39
2023/08/26 06:00:49;;;;;;;5.05;4.35;;;17.80;99.90;;;17.86;100.00;96949.63;5080470;28;20032;-38
2023/08/26 06:03:15;;;;;;;5.32;3.92;;;18.00;99.90;;;18.10;100.00;96961.13;5071512;28;20035;-38
2023/08/26 06:05:41;;;;;;;8.98;5.18;;;18.20;99.90;;;18.22;100.00;96977.22;5077409;28;20032;-40
2023/08/26 06:08:07;;;;;;;8.45;5.25;;;18.30;99.90;;;18.26;100.00;96979.53;5067743;22;20060;-38
2023/08/26 06:10:33;;;;;;;6.68;4.38;;;18.40;99.90;;;18.36;100.00;96979.72;5029496;28;20489;-39
2023/08/26 06:12:58;;;;;;;5.22;4.07;;;18.50;99.90;;;18.44;100.00;96958.59;5030571;28;20025;-40
2023/08/26 06:15:24;;;;;;;7.50;4.15;;;18.70;99.90;;;18.66;100.00;96967.66;5029891;28;20037;-39
2023/08/26 06:17:50;;;;;;;4.93;3.38;;;18.80;99.90;;;18.78;100.00;96969.38;5029929;28;20040;-38
2023/08/26 06:20:16;;;;;;;5.40;3.70;;;19.00;99.90;;;18.79;100.00;96975.56;5027713;28;20083;-39
2023/08/26 06:22:42;;;;;;;11.00;4.00;;;19.00;99.90;;;18.60;100.00;96942.25;5036072;28;20040;-39
2023/08/26 06:25:08;;;;;;;5.82;3.53;;;19.00;99.90;;;18.68;100.00;96966.59;5031404;28;20112;-39
2023/08/26 06:27:34;;;;;;;5.78;3.80;;;19.00;99.90;;;18.84;100.00;96987.66;5037147;28;20025;-39
2023/08/26 06:30:03;;;;;;;4.78;3.90;;;19.00;99.90;;;18.95;100.00;96994.84;5029839;28;20041;-39
2023/08/26 06:32:29;;;;;;;9.32;4.38;;;19.10;99.90;;;19.14;100.00;96994.25;5036400;28;21249;-39
2023/08/26 06:34:55;;;;;;;4.88;3.50;;;19.30;99.90;;;19.24;100.00;96987.22;5032905;28;20040;-40
2023/08/26 06:37:21;;;;;;;5.60;3.90;;;19.40;99.90;;;19.19;100.00;96986.72;5028656;28;20033;-39
2023/08/26 06:39:47;;;;;;;5.90;3.65;;;19.40;99.90;;;19.30;100.00;96982.38;5030903;28;20060;-40
2023/08/26 06:42:12;;;;;;;7.25;3.88;;;19.50;99.90;;;19.55;100.00;96984.78;5034240;28;20025;-39
2023/08/26 06:44:38;;;;;;;7.38;4.20;;;19.80;99.90;;;19.76;100.00;97008.16;5033188;28;20404;-40
2023/08/26 06:47:06;;;;;;;6.43;3.92;;;19.90;99.90;;;19.86;100.00;96995.72;5036816;28;20051;-39
2023/08/26 06:49:31;;;;;;;5.93;3.42;;;20.20;99.90;;;20.06;100.00;96994.09;5039136;28;20037;-39
2023/08/26 06:51:57;;;;;;;9.38;4.03;;;20.20;99.90;;;19.82;100.00;97005.81;5032734;28;20374;-40
2023/08/26 06:54:23;;;;;;;7.63;3.65;;;20.20;99.90;;;19.92;100.00;97008.63;5032793;28;20029;-41
2023/08/26 06:56:48;;;;;;;5.43;4.03;;;20.20;99.90;;;19.99;100.00;97001.78;5028623;28;20620;-40
2023/08/26 06:59:14;;;;;;;6.68;3.60;;;20.20;99.90;;;20.02;100.00;96993.47;5026688;28;20514;-40
2023/08/26 07:01:40;;;;;;;6.43;3.70;;;20.30;99.90;;;20.06;100.00;96985.22;5017803;28;20139;-40
2023/08/26 07:04:09;;;;;;;4.18;3.47;;;20.20;99.90;;;20.16;100.00;96989.69;5033883;28;20028;-40
2023/08/26 07:06:36;;;;;;;4.85;2.78;;;20.20;99.90;;;20.23;100.00;96999.91;5035077;28;20033;-40
2023/08/26 07:09:05;;;;;;;9.02;3.30;;;20.30;99.90;;;20.28;100.00;97003.91;5036129;28;20226;-40
2023/08/26 07:11:32;;;;;;;5.20;3.05;;;20.40;99.90;;;20.34;100.00;96994.50;5021595;28;20029;-41
2023/08/26 07:13:58;;;;;;;4.32;3.00;;;20.40;99.90;;;20.38;100.00;96998.63;5031019;28;20120;-42
2023/08/26 07:16:28;;;;;;;3.75;3.17;;;20.50;99.90;;;20.39;100.00;96998.50;5027168;28;20260;-40
2023/08/26 07:18:54;;;;;;;5.75;3.08;;;20.50;99.90;;;20.48;100.00;97001.41;5039910;28;20299;-41
2023/08/26 07:21:20;;;;;;;3.17;2.65;;;20.60;99.90;;;20.53;100.00;97000.03;5031370;28;20359;-40
2023/08/26 07:23:46;;;;;;;6.32;3.15;;;20.70;99.90;;;20.53;100.00;96985.75;5031463;28;20021;-40
2023/08/26 07:26:11;;;;;;;6.32;3.50;;;20.70;99.90;;;20.64;100.00;97001.84;5031752;28;20532;-41
2023/08/26 07:28:37;;;;;;;4.57;3.15;;;20.70;99.90;;;20.78;100.00;96997.97;5036021;28;20035;-40
2023/08/26 07:31:05;;;;;;;7.10;3.75;;;20.90;99.90;;;20.82;100.00;96990.50;5032920;28;20041;-40
2023/08/26 07:33:32;;;;;;;9.40;4.05;;;21.00;99.90;;;20.85;100.00;96998.31;5024261;28;20051;-40
2023/08/26 07:36:06;;;;;;;9.82;4.28;;;21.00;99.90;;;20.82;100.00;97001.25;5021743;28;20029;-40
2023/08/26 07:38:33;;;;;;;7.25;3.70;;;21.00;99.90;;;20.96;100.00;97008.94;5029637;28;20047;-42
2023/08/26 07:40:59;;;;;;;4.95;3.10;;;21.10;99.90;;;21.17;100.00;97007.13;5026483;28;20065;-41
2023/08/26 07:43:24;;;;;;;4.90;2.97;;;21.20;99.90;;;21.28;100.00;96990.13;5032461;28;20079;-40
2023/08/26 07:45:50;;;;;;;10.60;3.58;;;21.40;99.90;;;21.51;100.00;96990.78;5026563;28;20029;-41
2023/08/26 07:48:16;;;;;;;4.53;3.45;;;21.60;99.90;;;21.66;100.00;96977.88;5033585;28;20663;-41
2023/08/26 07:50:42;;;;;;;7.97;3.45;;;21.80;99.90;;;21.77;100.00;96984.09;5035983;28;20037;-41
2023/08/26 07:53:08;;;;;;;6.10;3.03;;;21.80;99.90;;;21.91;100.00;96972.97;5027347;28;20060;-40
2023/08/26 07:55:34;;;;;;;5.65;3.22;;;21.90;99.90;;;21.92;100.00;96967.47;5035466;28;20492;-41
2023/08/26 07:58:00;;;;;;;7.47;3.60;;;22.00;99.90;;;21.91;100.00;96952.38;5032873;28;20032;-41
2023/08/26 08:00:25;;;;;;;4.85;3.15;;;22.10;99.90;;;22.00;100.00;96968.63;5038202;28;20040;-40
2023/08/26 08:02:51;;;;;;;8.20;3.30;;;22.10;99.90;;;21.98;100.00;96943.75;5034355;28;20481;-41
2023/08/26 08:05:17;;;;;;;6.63;2.80;;;22.20;99.90;;;22.30;100.00;96963.19;5026720;28;20029;-41
2023/08/26 08:07:43;;;;;;;5.70;3.53;;;22.40;99.90;;;22.25;100.00;96970.78;5037297;28;20033;-40
2023/08/26 08:10:09;;;;;;;4.55;3.08;;;22.40;99.90;;;22.17;100.00;96985.91;5032741;28;20034;-40
2023/08/26 08:12:35;;;;;;;7.05;3.08;;;22.30;99.90;;;22.13;100.00;96996.09;5030618;28;20036;-42
2023/08/26 08:15:03;;;;;;;6.78;3.38;;;22.20;99.90;;;21.92;100.00;96998.84;5034493;28;20032;-40
2023/08/26 08:17:30;;;;;;;6.20;3.28;;;22.10;99.90;;;21.82;100.00;96997.97;5010200;28;20083;-40
2023/08/26 08:19:56;;;;;;;6.75;2.90;;;21.90;99.90;;;21.71;100.00;96991.75;5027733;28;20048;-40
2023/08/26 08:22:39;;;;;;;5.60;3.15;;;21.80;99.90;;;21.59;100.00;96992.81;5029924;28;20123;-41
2023/08/26 08:25:06;;;;;;;5.93;3.40;;;21.70;99.90;;;21.49;100.00;96997.28;5026328;28;20029;-40
2023/08/26 08:27:32;;;;;;;6.47;2.85;;;21.60;99.90;;;21.44;100.00;96992.28;5024337;28;20174;-40
2023/08/26 08:29:59;;;;;;;6.45;3.55;;;21.50;99.90;;;21.38;100.00;96998.19;5027532;28;20041;-40
2023/08/26 08:32:25;;;;;;;6.40;3.03;;;21.50;99.90;;;21.34;100.00;96997.63;5024206;28;20056;-41
2023/08/26 08:34:51;;;;;;;5.60;3.25;;;21.50;99.90;;;21.35;100.00;96993.09;5027679;28;20037;-41
2023/08/26 08:37:17;;;;;;;9.35;3.33;;;21.50;99.90;;;21.33;100.00;96976.28;5029794;28;20131;-40
2023/08/26 08:39:43;;;;;;;4.47;2.97;;;21.50;99.90;;;21.34;100.00;96978.84;5024541;28;20047;-41
2023/08/26 08:42:09;;;;;;;5.55;2.97;;;21.50;99.90;;;21.45;100.00;96979.75;5013771;28;20517;-42
2023/08/26 08:44:41;;;;;;;6.68;3.35;;;21.60;99.90;;;21.57;100.00;96978.69;5031726;28;20056;-41
2023/08/26 08:47:07;;;;;;;4.97;3.50;;;21.60;99.90;;;21.67;100.00;96981.41;5022453;28;20032;-42
2023/08/26 08:49:34;;;;;;;4.50;2.88;;;21.70;99.90;;;21.69;100.00;96974.06;5022990;28;20030;-40
2023/08/26 08:52:03;;;;;;;5.55;3.42;;;21.90;99.90;;;21.87;100.00;96991.19;5011158;28;20432;-41
2023/08/26 08:54:30;;;;;;;8.00;3.42;;;22.10;99.90;;;21.98;100.00;97000.13;5027193;28;20036;-41
2023/08/26 08:56:56;;;;;;;7.65;3.20;;;22.20;99.90;;;22.16;100.00;96997.63;5017529;28;20044;-42
2023/08/26 08:59:25;;;;;;;5.43;2.72;;;22.30;99.90;;;22.20;100.00;97002.59;5021554;28;20509;-40
2023/08/26 09:01:55;;;;;;;5.63;3.00;;;22.30;99.90;;;22.19;100.00;96994.66;5029841;28;20393;-40
2023/08/26 09:04:21;;;;;;;6.75;3.20;;;22.30;99.90;;;22.23;100.00;96998.75;5025259;28;20568;-41
2023/08/26 09:06:48;;;;;;;4.45;3.10;;;22.40;99.90;;;22.30;100.00;96997.25;5036187;28;20135;-40
2023/08/26 09:09:16;;;;;;;7.63;3.30;;;22.50;99.90;;;22.35;100.00;96978.88;5028630;28;20239;-40
2023/08/26 09:11:42;;;;;;;5.20;2.95;;;22.60;99.90;;;22.44;100.00;96990.63;5037851;28;20708;-41
2023/08/26 09:14:08;;;;;;;8.18;3.10;;;22.50;99.90;;;22.32;100.00;96987.22;5020870;28;20032;-40
2023/08/26 09:16:44;;;;;;;5.75;3.15;;;22.40;99.90;;;22.00;100.00;96974.00;5009177;28;20291;-40
2023/08/26 09:19:13;;;;;;;6.80;3.38;;;22.30;99.90;;;21.76;100.00;96977.06;5016709;28;20071;-40
2023/08/26 09:21:46;;;;;;;4.63;2.80;;;22.00;99.90;;;21.81;100.00;96986.41;5025854;28;20033;-40
2023/08/26 09:24:13;;;;;;;8.02;3.22;;;21.90;99.90;;;21.77;100.00;96984.97;5032667;28;20035;-40
2023/08/26 09:26:41;;;;;;;4.82;3.30;;;21.90;99.90;;;21.92;100.00;96977.38;5033301;28;20075;-40
2023/08/26 09:29:20;;;;;;;10.05;3.70;;;22.10;99.90;;;22.19;100.00;96992.81;5026463;28;20035;-42
2023/08/26 09:31:48;;;;;;;8.82;3.30;;;22.30;99.90;;;22.44;100.00;96996.00;5030615;28;20025;-40
2023/08/26 09:34:28;;;;;;;7.38;3.40;;;22.60;99.90;;;22.58;100.00;96992.88;5032487;28;20408;-41
2023/08/26 09:36:54;;;;;;;6.80;2.88;;;22.80;99.90;;;22.83;100.00;96996.00;5026917;28;20037;-40
2023/08/26 09:39:21;;;;;;;6.53;2.85;;;23.00;99.90;;;23.01;100.00;96996.13;5023581;28;20047;-41
2023/08/26 09:41:47;;;;;;;6.45;2.92;;;23.20;99.90;;;23.11;100.00;96983.50;5036383;28;20045;-41
2023/08/26 09:44:16;;;;;;;8.13;3.28;;;23.30;99.90;;;23.09;100.00;96993.56;5033680;28;20181;-40
2023/08/26 09:46:43;;;;;;;4.80;3.00;;;23.20;99.90;;;22.87;100.00;96989.34;5031538;28;20740;-41
2023/08/26 09:49:17;;;;;;;6.80;2.70;;;22.90;99.90;;;22.48;100.00;96983.97;5019950;28;20110;-41
2023/08/26 09:51:49;;;;;;;7.55;3.42;;;22.60;99.90;;;22.14;100.00;96983.50;5019502;28;20048;-40
2023/08/26 09:54:19;;;;;;;4.43;2.97;;;22.30;99.90;;;21.89;100.00;96978.50;5014664;28;20448;-40
2023/08/26 09:56:46;;;;;;;3.85;2.72;;;22.00;99.90;;;21.68;100.00;96953.59;5028714;28;20589;-40
2023/08/26 09:59:13;;;;;;;4.88;3.13;;;21.80;99.90;;;;;;5031285;28;20076;-41
2023/08/26 10:01:40;;;;;;;7.25;3.55;;;21.50;99.90;;;21.15;100.00;96946.56;5032002;28;20044;-41
2023/08/26 10:04:09;;;;;;;6.03;3.25;;;21.30;99.90;;;20.95;100.00;96948.31;5029703;28;20025;-40
2023/08/26 10:06:47;;;;;;;8.50;3.67;;;21.10;99.90;;;20.77;100.00;96946.22;5031624;28;20082;-40
2023/08/26 10:09:26;;;;;;;5.25;3.50;;;21.00;99.90;;;20.79;100.00;96949.59;5021822;28;20753;-39
2023/08/26 10:11:55;;;;;;;6.15;3.17;;;20.90;99.90;;;20.79;100.00;96957.66;5031315;28;20039;-40
2023/08/26 10:14:24;;;;;;;5.72;3.20;;;20.90;99.90;;;20.84;100.00;96965.31;5027996;28;21080;-37